sensor_id;sensor_type;location;lat;lon;timestamp;pressure;altitude;pressure_sealevel;temperature;humidity
12775;BME280;6451;42.630;23.382;2023-05-19T00:01:33;94569.13;;;15.96;100.00
12775;BME280;6451;42.630;23.382;2023-05-19T00:04:03;94586.75;;;16.02;100.00
12775;BME280;6451;42.630;23.382;2023-05-19T00:06:31;94548.00;;;15.97;100.00
12775;BME280;6451;42.630;23.382;2023-05-19T00:09:00;94549.44;;;15.87;100.00
12775;BME280;6451;42.630;23.382;2023-05-19T00:11:28;94591.88;;;16.04;100.00
12775;BME280;6451;42.630;23.382;2023-05-19T00:13:59;94569.53;;;15.98;100.00
12775;BME280;6451;42.630;23.382;2023-05-19T00:16:27;94584.25;;;16.64;100.00
12775;BME280;6451;42.630;23.382;2023-05-19T00:18:56;94560.38;;;16.21;100.00
12775;BME280;6451;42.630;23.382;2023-05-19T00:21:24;94560.53;;;16.38;100.00
12775;BME280;6451;42.630;23.382;2023-05-19T00:23:51;94561.09;;;16.18;100.00
12775;BME280;6451;42.630;23.382;2023-05-19T00:26:18;94571.69;;;16.63;100.00
12775;BME280;6451;42.630;23.382;2023-05-19T00:28:48;94535.75;;;16.24;100.00
12775;BME280;6451;42.630;23.382;2023-05-19T00:31:16;94569.94;;;16.41;100.00
12775;BME280;6451;42.630;23.382;2023-05-19T00:33:43;94576.66;;;16.06;100.00
12775;BME280;6451;42.630;23.382;2023-05-19T00:36:10;94577.06;;;16.49;100.00
12775;BME280;6451;42.630;23.382;2023-05-19T00:38:37;94573.53;;;16.49;100.00
12775;BME280;6451;42.630;23.382;2023-05-19T00:41:05;94574.53;;;16.30;100.00
12775;BME280;6451;42.630;23.382;2023-05-19T00:43:32;94548.69;;;16.27;100.00
12775;BME280;6451;42.630;23.382;2023-05-19T00:46:01;94558.09;;;16.30;100.00
12775;BME280;6451;42.630;23.382;2023-05-19T00:48:29;94477.72;;;15.67;100.00
12775;BME280;6451;42.630;23.382;2023-05-19T00:50:56;94558.66;;;16.09;100.00
12775;BME280;6451;42.630;23.382;2023-05-19T00:53:29;94567.34;;;16.15;100.00
12775;BME280;6451;42.630;23.382;2023-05-19T00:55:56;94538.06;;;15.81;100.00
12775;BME280;6451;42.630;23.382;2023-05-19T00:58:24;94544.56;;;16.07;100.00
12775;BME280;6451;42.630;23.382;2023-05-19T01:00:54;94555.91;;;16.05;100.00
12775;BME280;6451;42.630;23.382;2023-05-19T01:03:22;94559.25;;;16.29;100.00
12775;BME280;6451;42.630;23.382;2023-05-19T01:05:49;94556.91;;;16.27;100.00
12775;BME280;6451;42.630;23.382;2023-05-19T01:08:18;94557.97;;;16.16;100.00
12775;BME280;6451;42.630;23.382;2023-05-19T01:10:45;94555.56;;;16.55;100.00
12775;BME280;6451;42.630;23.382;2023-05-19T01:13:12;94560.88;;;16.74;100.00
12775;BME280;6451;42.630;23.382;2023-05-19T01:15:54;94345.38;;;15.42;100.00
12775;BME280;6451;42.630;23.382;2023-05-19T01:18:31;94546.63;;;16.58;100.00
12775;BME280;6451;42.630;23.382;2023-05-19T01:21:15;94570.50;;;16.57;100.00
12775;BME280;6451;42.630;23.382;2023-05-19T01:23:51;94562.81;;;16.33;100.00
12775;BME280;6451;42.630;23.382;2023-05-19T01:29:36;94566.38;;;16.37;100.00
12775;BME280;6451;42.630;23.382;2023-05-19T01:32:08;94564.75;;;16.32;100.00
12775;BME280;6451;42.630;23.382;2023-05-19T01:34:40;94482.69;;;15.95;100.00
12775;BME280;6451;42.630;23.382;2023-05-19T01:37:08;94558.66;;;16.05;100.00
12775;BME280;6451;42.630;23.382;2023-05-19T01:39:36;94566.78;;;15.98;100.00
12775;BME280;6451;42.630;23.382;2023-05-19T01:42:05;94568.84;;;16.08;100.00
12775;BME280;6451;42.630;23.382;2023-05-19T01:44:32;94567.28;;;15.74;100.00
12775;BME280;6451;42.630;23.382;2023-05-19T01:46:59;94569.66;;;16.12;100.00
12775;BME280;6451;42.630;23.382;2023-05-19T01:49:29;94558.31;;;15.77;100.00
12775;BME280;6451;42.630;23.382;2023-05-19T01:51:58;94544.56;;;15.70;100.00
12775;BME280;6451;42.630;23.382;2023-05-19T01:54:26;94540.16;;;15.95;100.00
12775;BME280;6451;42.630;23.382;2023-05-19T01:57:08;94550.91;;;16.15;100.00
12775;BME280;6451;42.630;23.382;2023-05-19T01:59:46;94575.22;;;16.20;100.00
12775;BME280;6451;42.630;23.382;2023-05-19T02:02:25;94555.28;;;15.82;100.00
12775;BME280;6451;42.630;23.382;2023-05-19T02:05:05;94576.47;;;15.89;100.00
12775;BME280;6451;42.630;23.382;2023-05-19T02:07:43;94530.69;;;16.26;100.00
12775;BME280;6451;42.630;23.382;2023-05-19T02:10:22;94516.91;;;15.45;100.00
12775;BME280;6451;42.630;23.382;2023-05-19T02:13:00;94572.06;;;15.80;100.00
12775;BME280;6451;42.630;23.382;2023-05-19T02:15:39;94534.00;;;15.68;100.00
12775;BME280;6451;42.630;23.382;2023-05-19T02:18:09;94534.38;;;15.07;100.00
12775;BME280;6451;42.630;23.382;2023-05-19T02:20:38;94566.31;;;15.29;100.00
12775;BME280;6451;42.630;23.382;2023-05-19T02:23:06;94568.66;;;15.30;100.00
12775;BME280;6451;42.630;23.382;2023-05-19T02:25:33;94508.28;;;15.43;100.00
12775;BME280;6451;42.630;23.382;2023-05-19T02:28:01;94561.34;;;16.02;100.00
12775;BME280;6451;42.630;23.382;2023-05-19T02:30:28;94578.72;;;15.53;100.00
12775;BME280;6451;42.630;23.382;2023-05-19T02:32:56;94564.94;;;15.42;100.00
12775;BME280;6451;42.630;23.382;2023-05-19T02:35:23;94588.22;;;15.33;100.00
12775;BME280;6451;42.630;23.382;2023-05-19T02:37:51;94567.78;;;15.23;100.00
12775;BME280;6451;42.630;23.382;2023-05-19T02:40:18;94577.41;;;14.87;100.00
12775;BME280;6451;42.630;23.382;2023-05-19T02:42:45;94537.78;;;15.00;100.00
12775;BME280;6451;42.630;23.382;2023-05-19T02:45:12;94565.38;;;15.18;100.00
12775;BME280;6451;42.630;23.382;2023-05-19T02:47:39;94578.63;;;15.46;100.00
12775;BME280;6451;42.630;23.382;2023-05-19T02:50:07;94590.03;;;15.21;100.00
12775;BME280;6451;42.630;23.382;2023-05-19T02:52:34;94523.16;;;14.59;100.00
12775;BME280;6451;42.630;23.382;2023-05-19T02:55:03;94515.59;;;14.75;100.00
12775;BME280;6451;42.630;23.382;2023-05-19T02:57:33;94586.13;;;15.22;100.00
12775;BME280;6451;42.630;23.382;2023-05-19T03:00:01;94588.88;;;15.22;100.00
12775;BME280;6451;42.630;23.382;2023-05-19T03:02:30;94577.69;;;15.05;100.00
12775;BME280;6451;42.630;23.382;2023-05-19T03:04:58;94579.47;;;15.50;100.00
12775;BME280;6451;42.630;23.382;2023-05-19T03:07:26;94529.59;;;15.00;100.00
12775;BME280;6451;42.630;23.382;2023-05-19T03:10:00;94600.47;;;15.42;100.00
12775;BME280;6451;42.630;23.382;2023-05-19T03:12:34;94594.81;;;15.58;100.00
12775;BME280;6451;42.630;23.382;2023-05-19T03:15:01;94544.84;;;14.74;100.00
12775;BME280;6451;42.630;23.382;2023-05-19T03:17:28;94534.88;;;15.16;100.00
12775;BME280;6451;42.630;23.382;2023-05-19T03:19:59;94583.47;;;15.26;100.00
12775;BME280;6451;42.630;23.382;2023-05-19T03:22:26;94596.06;;;15.08;100.00
12775;BME280;6451;42.630;23.382;2023-05-19T03:24:53;94556.88;;;14.96;100.00
12775;BME280;6451;42.630;23.382;2023-05-19T03:27:21;94596.22;;;15.75;100.00
12775;BME280;6451;42.630;23.382;2023-05-19T03:29:50;94583.72;;;15.17;100.00
12775;BME280;6451;42.630;23.382;2023-05-19T03:32:17;94588.31;;;15.40;100.00
12775;BME280;6451;42.630;23.382;2023-05-19T03:34:46;94596.25;;;15.18;100.00
12775;BME280;6451;42.630;23.382;2023-05-19T03:37:13;94597.97;;;15.60;100.00
12775;BME280;6451;42.630;23.382;2023-05-19T03:39:40;94593.78;;;15.40;100.00
12775;BME280;6451;42.630;23.382;2023-05-19T03:42:07;94608.03;;;15.52;100.00
12775;BME280;6451;42.630;23.382;2023-05-19T03:44:36;94593.28;;;15.61;100.00
12775;BME280;6451;42.630;23.382;2023-05-19T03:47:04;94492.88;;;14.71;100.00
12775;BME280;6451;42.630;23.382;2023-05-19T03:49:31;94587.22;;;15.74;100.00
12775;BME280;6451;42.630;23.382;2023-05-19T03:51:59;94516.22;;;15.21;100.00
12775;BME280;6451;42.630;23.382;2023-05-19T03:54:28;94594.31;;;16.12;100.00
12775;BME280;6451;42.630;23.382;2023-05-19T03:56:56;94605.88;;;15.65;100.00
12775;BME280;6451;42.630;23.382;2023-05-19T03:59:23;94608.88;;;15.56;100.00
12775;BME280;6451;42.630;23.382;2023-05-19T04:01:50;94594.31;;;15.79;100.00
12775;BME280;6451;42.630;23.382;2023-05-19T04:04:18;94598.84;;;15.98;100.00
12775;BME280;6451;42.630;23.382;2023-05-19T04:06:46;94599.50;;;15.57;100.00
12775;BME280;6451;42.630;23.382;2023-05-19T04:09:14;94601.38;;;15.80;100.00
12775;BME280;6451;42.630;23.382;2023-05-19T04:11:41;94610.69;;;15.75;100.00
12775;BME280;6451;42.630;23.382;2023-05-19T04:14:08;94565.38;;;15.48;100.00
12775;BME280;6451;42.630;23.382;2023-05-19T04:16:38;94611.13;;;16.15;100.00
12775;BME280;6451;42.630;23.382;2023-05-19T04:19:06;94616.22;;;16.12;100.00
12775;BME280;6451;42.630;23.382;2023-05-19T04:21:34;94613.56;;;16.20;100.00
12775;BME280;6451;42.630;23.382;2023-05-19T04:24:01;94615.19;;;16.28;100.00
12775;BME280;6451;42.630;23.382;2023-05-19T04:26:31;94615.66;;;16.33;100.00
12775;BME280;6451;42.630;23.382;2023-05-19T04:28:59;94594.47;;;16.27;100.00
12775;BME280;6451;42.630;23.382;2023-05-19T04:31:26;94610.19;;;16.37;100.00
12775;BME280;6451;42.630;23.382;2023-05-19T04:33:54;94628.34;;;16.52;100.00
12775;BME280;6451;42.630;23.382;2023-05-19T04:36:22;94600.41;;;17.32;100.00
12775;BME280;6451;42.630;23.382;2023-05-19T04:38:50;94627.34;;;17.15;100.00
12775;BME280;6451;42.630;23.382;2023-05-19T04:41:19;94622.25;;;17.14;100.00
12775;BME280;6451;42.630;23.382;2023-05-19T04:43:46;94627.72;;;17.10;100.00
12775;BME280;6451;42.630;23.382;2023-05-19T04:46:14;94627.66;;;17.65;100.00
12775;BME280;6451;42.630;23.382;2023-05-19T04:48:42;94621.78;;;17.67;100.00
12775;BME280;6451;42.630;23.382;2023-05-19T04:51:09;94625.03;;;17.24;100.00
12775;BME280;6451;42.630;23.382;2023-05-19T04:53:39;94616.88;;;17.32;100.00
12775;BME280;6451;42.630;23.382;2023-05-19T04:56:08;94629.63;;;17.65;100.00
12775;BME280;6451;42.630;23.382;2023-05-19T04:58:41;94638.06;;;17.38;100.00
12775;BME280;6451;42.630;23.382;2023-05-19T05:01:09;94632.06;;;17.77;100.00
12775;BME280;6451;42.630;23.382;2023-05-19T05:03:38;94637.53;;;17.73;100.00
12775;BME280;6451;42.630;23.382;2023-05-19T05:06:05;94627.63;;;17.62;100.00
12775;BME280;6451;42.630;23.382;2023-05-19T05:08:32;94638.94;;;17.49;100.00
12775;BME280;6451;42.630;23.382;2023-05-19T05:11:05;94547.53;;;16.73;100.00
12775;BME280;6451;42.630;23.382;2023-05-19T05:13:35;94622.25;;;17.17;100.00
12775;BME280;6451;42.630;23.382;2023-05-19T05:16:04;94575.22;;;17.12;100.00
12775;BME280;6451;42.630;23.382;2023-05-19T05:18:33;94631.31;;;17.84;100.00
12775;BME280;6451;42.630;23.382;2023-05-19T05:21:01;94631.94;;;18.50;100.00
12775;BME280;6451;42.630;23.382;2023-05-19T05:23:29;94625.31;;;19.15;100.00
12775;BME280;6451;42.630;23.382;2023-05-19T05:25:56;94618.66;;;18.98;100.00
12775;BME280;6451;42.630;23.382;2023-05-19T05:28:23;94625.72;;;18.92;100.00
12775;BME280;6451;42.630;23.382;2023-05-19T05:30:51;94628.50;;;19.10;100.00
12775;BME280;6451;42.630;23.382;2023-05-19T05:33:20;94635.16;;;19.05;100.00
12775;BME280;6451;42.630;23.382;2023-05-19T05:35:49;94637.13;;;19.19;100.00
12775;BME280;6451;42.630;23.382;2023-05-19T05:38:16;94639.06;;;19.58;100.00
12775;BME280;6451;42.630;23.382;2023-05-19T05:40:43;94610.41;;;19.12;100.00
12775;BME280;6451;42.630;23.382;2023-05-19T05:43:11;94634.72;;;19.71;100.00
12775;BME280;6451;42.630;23.382;2023-05-19T05:45:38;94604.06;;;19.44;100.00
12775;BME280;6451;42.630;23.382;2023-05-19T05:48:07;94637.09;;;19.37;100.00
12775;BME280;6451;42.630;23.382;2023-05-19T05:50:34;94639.38;;;19.95;100.00
12775;BME280;6451;42.630;23.382;2023-05-19T05:53:05;94623.25;;;19.83;100.00
12775;BME280;6451;42.630;23.382;2023-05-19T05:55:32;94659.88;;;19.52;100.00
12775;BME280;6451;42.630;23.382;2023-05-19T05:57:59;94663.03;;;18.89;100.00
12775;BME280;6451;42.630;23.382;2023-05-19T06:00:28;94652.41;;;19.63;100.00
12775;BME280;6451;42.630;23.382;2023-05-19T06:02:55;94659.47;;;19.75;100.00
12775;BME280;6451;42.630;23.382;2023-05-19T06:05:24;94643.78;;;19.64;100.00
12775;BME280;6451;42.630;23.382;2023-05-19T06:07:51;94675.59;;;19.83;100.00
12775;BME280;6451;42.630;23.382;2023-05-19T06:10:18;94666.59;;;19.40;100.00
12775;BME280;6451;42.630;23.382;2023-05-19T06:12:45;94676.00;;;19.82;100.00
12775;BME280;6451;42.630;23.382;2023-05-19T06:15:12;94623.25;;;19.90;100.00
12775;BME280;6451;42.630;23.382;2023-05-19T06:17:39;94664.56;;;19.90;100.00
12775;BME280;6451;42.630;23.382;2023-05-19T06:20:07;94678.41;;;19.26;100.00
12775;BME280;6451;42.630;23.382;2023-05-19T06:22:35;94652.03;;;19.68;100.00
12775;BME280;6451;42.630;23.382;2023-05-19T06:25:03;94666.16;;;19.88;100.00
12775;BME280;6451;42.630;23.382;2023-05-19T06:27:30;94676.56;;;20.46;99.19
12775;BME280;6451;42.630;23.382;2023-05-19T06:29:57;94671.06;;;20.50;99.00
12775;BME280;6451;42.630;23.382;2023-05-19T06:32:24;94669.03;;;20.58;99.72
12775;BME280;6451;42.630;23.382;2023-05-19T06:34:51;94675.72;;;20.64;96.42
12775;BME280;6451;42.630;23.382;2023-05-19T06:37:20;94674.66;;;20.29;93.50
12775;BME280;6451;42.630;23.382;2023-05-19T06:39:49;94680.88;;;20.54;93.20
12775;BME280;6451;42.630;23.382;2023-05-19T06:42:17;94673.13;;;20.14;96.89
12775;BME280;6451;42.630;23.382;2023-05-19T06:44:47;94676.19;;;20.48;96.15
12775;BME280;6451;42.630;23.382;2023-05-19T06:47:14;94675.75;;;20.53;95.14
12775;BME280;6451;42.630;23.382;2023-05-19T06:49:42;94671.81;;;21.17;93.13
12775;BME280;6451;42.630;23.382;2023-05-19T06:52:09;94661.72;;;20.96;91.11
12775;BME280;6451;42.630;23.382;2023-05-19T06:54:36;94658.81;;;20.54;90.58
12775;BME280;6451;42.630;23.382;2023-05-19T06:57:04;94682.88;;;21.17;86.27
12775;BME280;6451;42.630;23.382;2023-05-19T06:59:32;94693.47;;;20.56;90.19
12775;BME280;6451;42.630;23.382;2023-05-19T07:02:05;94677.34;;;21.17;88.79
12775;BME280;6451;42.630;23.382;2023-05-19T07:04:33;94679.44;;;21.95;86.62
12775;BME280;6451;42.630;23.382;2023-05-19T07:07:00;94683.63;;;22.10;83.94
12775;BME280;6451;42.630;23.382;2023-05-19T07:09:27;94677.94;;;21.83;85.54
12775;BME280;6451;42.630;23.382;2023-05-19T07:11:54;94700.06;;;21.38;84.27
12775;BME280;6451;42.630;23.382;2023-05-19T07:14:23;94690.75;;;21.67;85.97
12775;BME280;6451;42.630;23.382;2023-05-19T07:16:50;94694.66;;;21.69;83.86
12775;BME280;6451;42.630;23.382;2023-05-19T07:19:17;94694.28;;;21.71;83.27
12775;BME280;6451;42.630;23.382;2023-05-19T07:21:44;94677.59;;;21.81;83.07
12775;BME280;6451;42.630;23.382;2023-05-19T07:24:11;94691.59;;;22.01;82.87
12775;BME280;6451;42.630;23.382;2023-05-19T07:26:38;94691.69;;;21.94;84.04
12775;BME280;6451;42.630;23.382;2023-05-19T07:29:05;94693.13;;;22.74;82.24
12775;BME280;6451;42.630;23.382;2023-05-19T07:31:34;94690.69;;;21.25;84.56
12775;BME280;6451;42.630;23.382;2023-05-19T07:34:01;94693.44;;;21.74;82.85
12775;BME280;6451;42.630;23.382;2023-05-19T07:36:28;94694.94;;;21.85;82.42
12775;BME280;6451;42.630;23.382;2023-05-19T07:38:55;94697.13;;;22.01;82.55
12775;BME280;6451;42.630;23.382;2023-05-19T07:41:22;94674.16;;;22.11;80.29
12775;BME280;6451;42.630;23.382;2023-05-19T07:43:49;94693.38;;;22.56;79.07
12775;BME280;6451;42.630;23.382;2023-05-19T07:46:16;94681.34;;;22.70;78.94
12775;BME280;6451;42.630;23.382;2023-05-19T07:48:44;94699.69;;;22.87;79.53
12775;BME280;6451;42.630;23.382;2023-05-19T07:51:12;94686.75;;;23.08;80.30
12775;BME280;6451;42.630;23.382;2023-05-19T07:53:40;94678.97;;;22.68;78.44
12775;BME280;6451;42.630;23.382;2023-05-19T07:56:07;94677.66;;;22.76;76.45
12775;BME280;6451;42.630;23.382;2023-05-19T07:58:34;94694.19;;;22.53;77.85
12775;BME280;6451;42.630;23.382;2023-05-19T08:01:01;94680.53;;;22.39;76.97
12775;BME280;6451;42.630;23.382;2023-05-19T08:03:28;94692.72;;;22.11;79.69
12775;BME280;6451;42.630;23.382;2023-05-19T08:05:57;94687.50;;;22.81;76.58
12775;BME280;6451;42.630;23.382;2023-05-19T08:08:24;94690.41;;;23.01;77.79
12775;BME280;6451;42.630;23.382;2023-05-19T08:10:51;94688.94;;;22.62;78.42
12775;BME280;6451;42.630;23.382;2023-05-19T08:13:18;94688.94;;;23.47;76.33
12775;BME280;6451;42.630;23.382;2023-05-19T08:15:46;94685.59;;;23.32;76.86
12775;BME280;6451;42.630;23.382;2023-05-19T08:18:13;94675.66;;;23.58;76.03
12775;BME280;6451;42.630;23.382;2023-05-19T08:20:40;94685.38;;;23.46;75.98
12775;BME280;6451;42.630;23.382;2023-05-19T08:23:09;94687.16;;;23.33;75.52
12775;BME280;6451;42.630;23.382;2023-05-19T08:25:36;94683.63;;;24.03;74.74
12775;BME280;6451;42.630;23.382;2023-05-19T08:28:03;94645.38;;;22.97;73.16
12775;BME280;6451;42.630;23.382;2023-05-19T08:30:30;94683.41;;;22.93;74.27
12775;BME280;6451;42.630;23.382;2023-05-19T08:32:57;94682.81;;;22.78;76.30
12775;BME280;6451;42.630;23.382;2023-05-19T08:35:25;94685.66;;;23.01;76.38
12775;BME280;6451;42.630;23.382;2023-05-19T08:37:51;94687.84;;;22.87;78.39
12775;BME280;6451;42.630;23.382;2023-05-19T08:40:20;94677.13;;;22.89;76.58
12775;BME280;6451;42.630;23.382;2023-05-19T08:42:47;94675.34;;;23.29;73.26
12775;BME280;6451;42.630;23.382;2023-05-19T08:45:14;94678.31;;;23.42;72.02
12775;BME280;6451;42.630;23.382;2023-05-19T08:47:44;94687.53;;;23.58;71.02
12775;BME280;6451;42.630;23.382;2023-05-19T08:50:16;94685.31;;;23.50;73.37
12775;BME280;6451;42.630;23.382;2023-05-19T08:52:50;94667.25;;;22.57;76.61
12775;BME280;6451;42.630;23.382;2023-05-19T08:55:28;94683.03;;;23.68;74.47
12775;BME280;6451;42.630;23.382;2023-05-19T08:58:02;94677.09;;;23.19;71.66
12775;BME280;6451;42.630;23.382;2023-05-19T09:00:31;94686.81;;;23.54;73.10
12775;BME280;6451;42.630;23.382;2023-05-19T09:02:59;94692.88;;;23.46;71.46
12775;BME280;6451;42.630;23.382;2023-05-19T09:05:26;94685.16;;;23.61;69.88
12775;BME280;6451;42.630;23.382;2023-05-19T09:07:53;94681.81;;;23.69;70.21
12775;BME280;6451;42.630;23.382;2023-05-19T09:10:22;94675.44;;;23.96;70.04
12775;BME280;6451;42.630;23.382;2023-05-19T09:12:53;94656.16;;;23.89;72.38
12775;BME280;6451;42.630;23.382;2023-05-19T09:15:25;94678.69;;;23.67;71.11
12775;BME280;6451;42.630;23.382;2023-05-19T09:18:04;94666.47;;;23.14;73.48
12775;BME280;6451;42.630;23.382;2023-05-19T09:20:32;94668.75;;;24.13;72.90
12775;BME280;6451;42.630;23.382;2023-05-19T09:23:02;94665.59;;;23.44;73.78
12775;BME280;6451;42.630;23.382;2023-05-19T09:25:30;94660.03;;;23.71;74.17
12775;BME280;6451;42.630;23.382;2023-05-19T09:27:58;94667.16;;;23.92;70.15
12775;BME280;6451;42.630;23.382;2023-05-19T09:30:25;94652.38;;;23.55;73.79
12775;BME280;6451;42.630;23.382;2023-05-19T09:32:52;94663.03;;;23.80;72.76
12775;BME280;6451;42.630;23.382;2023-05-19T09:35:19;94662.16;;;23.64;72.35
12775;BME280;6451;42.630;23.382;2023-05-19T09:37:46;94656.88;;;23.69;72.72
12775;BME280;6451;42.630;23.382;2023-05-19T09:40:14;94663.34;;;23.63;71.89
12775;BME280;6451;42.630;23.382;2023-05-19T09:42:41;94657.84;;;23.59;72.38
12775;BME280;6451;42.630;23.382;2023-05-19T09:45:10;94663.25;;;23.43;71.60
12775;BME280;6451;42.630;23.382;2023-05-19T09:47:38;94656.41;;;23.51;73.18
12775;BME280;6451;42.630;23.382;2023-05-19T09:50:09;94649.41;;;23.90;70.68
12775;BME280;6451;42.630;23.382;2023-05-19T09:52:37;94646.66;;;24.09;68.88
12775;BME280;6451;42.630;23.382;2023-05-19T09:55:08;94655.69;;;23.94;66.79
12775;BME280;6451;42.630;23.382;2023-05-19T09:57:36;94660.59;;;24.46;67.94
12775;BME280;6451;42.630;23.382;2023-05-19T10:00:06;94654.28;;;24.25;68.42
12775;BME280;6451;42.630;23.382;2023-05-19T10:02:42;94644.16;;;25.27;65.78
12775;BME280;6451;42.630;23.382;2023-05-19T10:05:13;94652.72;;;25.00;66.21
12775;BME280;6451;42.630;23.382;2023-05-19T10:07:42;94638.41;;;24.26;69.69
12775;BME280;6451;42.630;23.382;2023-05-19T10:10:14;94639.47;;;24.32;71.31
12775;BME280;6451;42.630;23.382;2023-05-19T10:12:42;94645.38;;;24.90;73.47
12775;BME280;6451;42.630;23.382;2023-05-19T10:15:10;94640.16;;;25.12;71.23
12775;BME280;6451;42.630;23.382;2023-05-19T10:17:38;94637.25;;;24.99;69.37
12775;BME280;6451;42.630;23.382;2023-05-19T10:20:09;94639.28;;;25.15;69.12
12775;BME280;6451;42.630;23.382;2023-05-19T10:22:37;94633.72;;;24.62;67.89
12775;BME280;6451;42.630;23.382;2023-05-19T10:25:05;94625.72;;;25.01;68.08
12775;BME280;6451;42.630;23.382;2023-05-19T10:27:35;94635.22;;;24.83;66.76
12775;BME280;6451;42.630;23.382;2023-05-19T10:30:07;94635.59;;;24.85;64.54
12775;BME280;6451;42.630;23.382;2023-05-19T10:32:37;94617.28;;;24.88;64.55
12775;BME280;6451;42.630;23.382;2023-05-19T10:38:14;94624.09;;;25.19;67.70
12775;BME280;6451;42.630;23.382;2023-05-19T10:40:52;94456.78;;;23.98;63.82
12775;BME280;6451;42.630;23.382;2023-05-19T10:43:25;94611.03;;;25.65;63.63
12775;BME280;6451;42.630;23.382;2023-05-19T10:45:57;94615.34;;;25.21;62.22
12775;BME280;6451;42.630;23.382;2023-05-19T10:48:24;94620.72;;;25.28;60.91
12775;BME280;6451;42.630;23.382;2023-05-19T10:50:52;94621.06;;;25.30;61.26
12775;BME280;6451;42.630;23.382;2023-05-19T10:53:28;94611.69;;;25.40;62.70
12775;BME280;6451;42.630;23.382;2023-05-19T10:55:55;94608.91;;;25.73;62.90
12775;BME280;6451;42.630;23.382;2023-05-19T10:58:48;94609.56;;;25.61;62.67
12775;BME280;6451;42.630;23.382;2023-05-19T11:01:16;94606.59;;;25.68;64.05
12775;BME280;6451;42.630;23.382;2023-05-19T11:03:44;94611.78;;;25.98;62.27
12775;BME280;6451;42.630;23.382;2023-05-19T11:06:19;94601.09;;;25.97;60.82
12775;BME280;6451;42.630;23.382;2023-05-19T11:08:53;94602.13;;;26.03;59.07
12775;BME280;6451;42.630;23.382;2023-05-19T11:11:20;94596.41;;;26.36;57.86
12775;BME280;6451;42.630;23.382;2023-05-19T11:13:50;94594.53;;;26.32;60.37
12775;BME280;6451;42.630;23.382;2023-05-19T11:16:26;94604.13;;;25.57;57.49
12775;BME280;6451;42.630;23.382;2023-05-19T11:18:54;94614.00;;;26.32;55.58
12775;BME280;6451;42.630;23.382;2023-05-19T11:21:21;94594.16;;;26.18;54.40
12775;BME280;6451;42.630;23.382;2023-05-19T11:23:50;94593.31;;;26.33;54.35
12775;BME280;6451;42.630;23.382;2023-05-19T11:26:39;94559.41;;;27.02;52.60
12775;BME280;6451;42.630;23.382;2023-05-19T11:29:06;94590.72;;;27.19;53.03
12775;BME280;6451;42.630;23.382;2023-05-19T11:31:34;94595.59;;;26.51;54.62
12775;BME280;6451;42.630;23.382;2023-05-19T11:34:03;94570.16;;;26.37;54.09
12775;BME280;6451;42.630;23.382;2023-05-19T11:36:32;94596.94;;;26.18;56.29
12775;BME280;6451;42.630;23.382;2023-05-19T11:39:00;94563.53;;;25.60;57.34
12775;BME280;6451;42.630;23.382;2023-05-19T11:41:29;94623.47;;;24.59;63.15
12775;BME280;6451;42.630;23.382;2023-05-19T11:43:56;94584.66;;;23.80;72.20
12775;BME280;6451;42.630;23.382;2023-05-19T11:46:23;94629.47;;;22.47;88.16
12775;BME280;6451;42.630;23.382;2023-05-19T11:48:52;94654.16;;;22.31;83.00
12775;BME280;6451;42.630;23.382;2023-05-19T11:51:20;94643.69;;;22.45;80.29
12775;BME280;6451;42.630;23.382;2023-05-19T11:53:49;94638.03;;;22.26;88.21
12775;BME280;6451;42.630;23.382;2023-05-19T11:56:16;94665.47;;;22.43;92.59
12775;BME280;6451;42.630;23.382;2023-05-19T11:58:44;94657.81;;;22.55;93.95
12775;BME280;6451;42.630;23.382;2023-05-19T12:01:11;94666.22;;;22.47;96.38
12775;BME280;6451;42.630;23.382;2023-05-19T12:03:39;94695.78;;;21.75;100.00
12775;BME280;6451;42.630;23.382;2023-05-19T12:06:06;94711.50;;;20.74;100.00
12775;BME280;6451;42.630;23.382;2023-05-19T12:08:34;94651.88;;;20.18;100.00
12775;BME280;6451;42.630;23.382;2023-05-19T12:11:03;94703.03;;;20.19;100.00
12775;BME280;6451;42.630;23.382;2023-05-19T12:13:32;94692.13;;;19.76;100.00
12775;BME280;6451;42.630;23.382;2023-05-19T12:16:02;94704.09;;;20.57;99.71
12775;BME280;6451;42.630;23.382;2023-05-19T12:18:29;94675.63;;;20.78;95.65
12775;BME280;6451;42.630;23.382;2023-05-19T12:20:57;94691.38;;;21.40;96.07
12775;BME280;6451;42.630;23.382;2023-05-19T12:23:24;94706.44;;;21.32;95.90
12775;BME280;6451;42.630;23.382;2023-05-19T12:25:55;94694.25;;;21.22;97.74
12775;BME280;6451;42.630;23.382;2023-05-19T12:28:22;94698.78;;;20.91;93.65
12775;BME280;6451;42.630;23.382;2023-05-19T12:30:49;94684.94;;;20.98;93.32
12775;BME280;6451;42.630;23.382;2023-05-19T12:33:18;94669.22;;;20.95;96.77
12775;BME280;6451;42.630;23.382;2023-05-19T12:35:47;94677.25;;;21.24;97.56
12775;BME280;6451;42.630;23.382;2023-05-19T12:38:15;94648.00;;;21.37;98.85
12775;BME280;6451;42.630;23.382;2023-05-19T12:40:42;94662.72;;;22.09;94.99
12775;BME280;6451;42.630;23.382;2023-05-19T12:43:18;94663.28;;;22.28;93.37
12775;BME280;6451;42.630;23.382;2023-05-19T12:45:45;94643.41;;;22.40;91.59
12775;BME280;6451;42.630;23.382;2023-05-19T12:48:12;94632.41;;;22.94;91.88
12775;BME280;6451;42.630;23.382;2023-05-19T12:50:42;94631.03;;;23.52;87.19
12775;BME280;6451;42.630;23.382;2023-05-19T12:53:10;94621.72;;;23.66;84.51
12775;BME280;6451;42.630;23.382;2023-05-19T12:55:38;94430.28;;;22.74;81.28
12775;BME280;6451;42.630;23.382;2023-05-19T12:58:07;94592.53;;;23.81;79.67
12775;BME280;6451;42.630;23.382;2023-05-19T13:00:39;94604.00;;;24.03;76.36
12775;BME280;6451;42.630;23.382;2023-05-19T13:03:14;94625.78;;;24.61;68.55
12775;BME280;6451;42.630;23.382;2023-05-19T13:05:45;94617.66;;;25.06;66.02
12775;BME280;6451;42.630;23.382;2023-05-19T13:08:13;94620.53;;;25.19;61.91
12775;BME280;6451;42.630;23.382;2023-05-19T13:10:42;94610.38;;;25.12;63.23